Back to top

Cheyenne, WY weather

Cheyenne Regional/Jerry Olson Field, Cheyenne, WY: 6/04/2020 05:53
Visibility10 statute milesclear sky
View 7-Day Forecast
Area Summary
Sky/CloudsSky Clear
Weather [last 24 hours]None [thunderstorm began 14:53; rain began 15:20 ended 15:07 began 15:35, thunderstorm ended 15:08 began 15:10 ended 15:30; rain ended 16:21; rain ended 16:21 began 16:40; rain ended 17:02 ]
Pressure30.04 in.Hg (1017 hPa)
3-hour Pressure Tendency0.005905 in.Hg (0.2 hPa) Decreasing, then increasing
Dew Point36 °F (2.2 °C)
Relative Humidity43.7 %
Last 24-Hour Precip.Trace
Reading TimePrecipitation
6-hr ending 6/3@17:53Trace
Temperature57.9 °F (14.4 °C)red thermometer
Reading TimeMinimum to Maximum Temperature
6-hr ending 6/4@05:5354 °F to 61 °F (12.2 °C to 16.1 °C)
6-hr ending 6/3@23:5354 °F to 78.1 °F (12.2 °C to 25.6 °C)
6-hr ending 6/3@17:5366 °F to 82.9 °F (18.9 °C to 28.3 °C)
6-hr ending 6/3@11:5355.9 °F to 82 °F (13.3 °C to 27.8 °C)
24-hr ending 6/4@00:5354 °F to 82.9 °F (12.2 °C to 28.3 °C)
Wind12.7 MPH (11 KT) green arrow pointing 270 degrees
Wind FromWest (280 Degrees)
Rolling 24-hr Peak Wind62.1 MPH (54 KT) on 6/3@16:40
Rolling 24-hr Peak Wind FromWest/Southwest (240 Degrees)
Twilight Begins04:52Sunshine Yesterday
Sunrise05:26N/A
Sunset20:30
Twilight Ends21:04
METARKCYS 041153Z 28011KT 10SM CLR 14/02 A3004 RMK AO2 SLP087 T01440022 10161 20122 55002
Tags: